Four Corners Regional, NM

3:32 PM MDT on May 04, 2015 (GMT -0600)
Cortez Municipal | | Change Station
CLOSE
Current Station
Airport
Location: Cortez,
Elevation: 5915 ft
Nearby Weather Stations

Elev 5915 ft 37.31 °N, 108.63 °W | Updated 39 minutes ago

Mostly Cloudy
Mostly Cloudy
69 °F
Feels Like 69 °F
N
17
Wind Variable Wind from SSW

Today
High -- | Low -- °F
--% Chance of Precip.
Yesterday
High -- | Low -- °F
Precip. -- in
6:15 AM 8:03 PM
Waxing Gibbous, 99% visible
Pressure 29.80 in
Visibility 10.0 miles
Clouds Few 11000 ft
Dew Point 37 °F
Humidity 31%
Rainfall 0.00 in
Snow Depth Not available.
UV 10 out of 12
Pollen 6.50 out of 12
Air Quality Not available.
Flu Activity Local Activity
METAR KCEZ 042053Z AUTO 21015KT 10SM FEW110 21/03 A2996 RMK AO2 LTG DSNT SE SLP091 60000 T02060028 56020

More Conditions Fewer Conditions

Pressure 29.80 in
Visibility 10.0 miles
Clouds Few 11000 ft
Dew Point 37 °F
Humidity 31%
Rainfall 0.00 in
Snow Depth Not available.
UV 10 out of 12
Pollen 6.50 out of 12
Air Quality Not available.
Flu Activity Local Activity
METAR KCEZ 042053Z AUTO 21015KT 10SM FEW110 21/03 A2996 RMK AO2 LTG DSNT SE SLP091 60000 T02060028 56020

More Conditions Fewer Conditions

Nepal has a long way to go to dig out and rebuild from a devastating earthquake. We have teamed up with several charities and organizations to make contributing to the relief effort as easy as possible.
How you can help: Portlight Strategies | Red Cross
Nowcast | as of 2:02 PM MDT on May 4, 2015

Scattered showers and thunderstorms with gusty winds...cloud to ground lightning and small hail will continue to track north over western zones this afternoon and evening. Through 400 PM MDT...the strongest storms will produce hail that covers the ground as well as local downpours producing a quick quarter of an inch of rain with runoffs. Interstate 40 from the Arizona border to the Laguna area will be impacted by this activity.

×

10-Day Weather Forecast

Almanac

Astronomy

May. 04, 2015 Rise Set
Actual Time
Civil Twilight
Nautical Twilight
Astronomical Twilight
Moon
Length of Visible Light
Length of Day
Tomorrow will be .
, % of the Moon is Illuminated

Today's Extremes

State Highs State Lows

Community

WunderPhotos

Upload Photos

1,818,704 photos uploaded!

WunderBlogs® & News

Nearby

Air Quality

  Air Quality AQ Index Pollutant
Not available.

Snow Depth

Station Depth Elevation

Earthquake Activity

City Distance Mag. Time & Date
Minimum magnitude displayed is 2.5.

Coastal Water Temperatures

Place Temperature

Stations

Nearby Weather Stations

Station Location Temp. Windchill Dew Point Humidity Wind Precip. Elev Updated Type